sensor_id;sensor_type;location;lat;lon;timestamp;temperature;humidity
44537;DHT22;30245;51.966;6.292;2023-07-16T00:00:30;24.00;62.90
44537;DHT22;30245;51.966;6.292;2023-07-16T00:02:55;24.00;62.80
44537;DHT22;30245;51.966;6.292;2023-07-16T00:05:21;24.00;62.60
44537;DHT22;30245;51.966;6.292;2023-07-16T00:07:47;24.00;62.60
44537;DHT22;30245;51.966;6.292;2023-07-16T00:10:13;24.10;62.50
44537;DHT22;30245;51.966;6.292;2023-07-16T00:12:38;24.00;62.60
44537;DHT22;30245;51.966;6.292;2023-07-16T00:15:04;24.00;62.70
44537;DHT22;30245;51.966;6.292;2023-07-16T00:17:31;24.10;62.70
44537;DHT22;30245;51.966;6.292;2023-07-16T00:19:58;24.10;62.50
44537;DHT22;30245;51.966;6.292;2023-07-16T00:22:23;24.20;62.30
44537;DHT22;30245;51.966;6.292;2023-07-16T00:24:49;24.20;62.50
44537;DHT22;30245;51.966;6.292;2023-07-16T00:27:15;24.10;62.70
44537;DHT22;30245;51.966;6.292;2023-07-16T00:29:40;24.00;63.00
44537;DHT22;30245;51.966;6.292;2023-07-16T00:32:06;24.00;63.00
44537;DHT22;30245;51.966;6.292;2023-07-16T00:34:32;24.00;62.90
44537;DHT22;30245;51.966;6.292;2023-07-16T00:36:57;24.00;63.10
44537;DHT22;30245;51.966;6.292;2023-07-16T00:39:27;24.00;63.20
44537;DHT22;30245;51.966;6.292;2023-07-16T00:41:53;24.10;63.20
44537;DHT22;30245;51.966;6.292;2023-07-16T00:44:19;24.10;63.00
44537;DHT22;30245;51.966;6.292;2023-07-16T00:46:44;24.10;63.00
44537;DHT22;30245;51.966;6.292;2023-07-16T00:49:10;24.20;63.10
44537;DHT22;30245;51.966;6.292;2023-07-16T00:51:36;24.10;63.70
44537;DHT22;30245;51.966;6.292;2023-07-16T00:54:02;24.10;63.40
44537;DHT22;30245;51.966;6.292;2023-07-16T00:56:28;24.00;63.40
44537;DHT22;30245;51.966;6.292;2023-07-16T00:58:54;24.00;63.40
44537;DHT22;30245;51.966;6.292;2023-07-16T01:01:20;24.00;63.50
44537;DHT22;30245;51.966;6.292;2023-07-16T01:03:46;24.00;63.60
44537;DHT22;30245;51.966;6.292;2023-07-16T01:06:22;23.90;63.10
44537;DHT22;30245;51.966;6.292;2023-07-16T01:09:02;23.90;63.60
44537;DHT22;30245;51.966;6.292;2023-07-16T01:11:29;23.90;62.60
44537;DHT22;30245;51.966;6.292;2023-07-16T01:13:55;23.90;61.90
44537;DHT22;30245;51.966;6.292;2023-07-16T01:16:24;23.80;61.60
44537;DHT22;30245;51.966;6.292;2023-07-16T01:18:50;23.80;61.50
44537;DHT22;30245;51.966;6.292;2023-07-16T01:21:19;23.70;61.20
44537;DHT22;30245;51.966;6.292;2023-07-16T01:24:04;23.70;61.30
44537;DHT22;30245;51.966;6.292;2023-07-16T01:29:37;23.50;60.80
44537;DHT22;30245;51.966;6.292;2023-07-16T01:32:07;23.50;60.50
44537;DHT22;30245;51.966;6.292;2023-07-16T01:34:34;23.40;60.40
44537;DHT22;30245;51.966;6.292;2023-07-16T01:37:02;23.40;60.20
44537;DHT22;30245;51.966;6.292;2023-07-16T01:39:28;23.50;60.20
44537;DHT22;30245;51.966;6.292;2023-07-16T01:41:53;23.50;60.00
44537;DHT22;30245;51.966;6.292;2023-07-16T01:44:19;23.40;59.80
44537;DHT22;30245;51.966;6.292;2023-07-16T01:46:49;23.20;60.00
44537;DHT22;30245;51.966;6.292;2023-07-16T01:49:19;23.20;60.00
44537;DHT22;30245;51.966;6.292;2023-07-16T01:51:44;23.30;60.00
44537;DHT22;30245;51.966;6.292;2023-07-16T01:54:10;23.30;59.90
44537;DHT22;30245;51.966;6.292;2023-07-16T01:56:35;23.20;59.80
44537;DHT22;30245;51.966;6.292;2023-07-16T01:59:01;23.20;59.80
44537;DHT22;30245;51.966;6.292;2023-07-16T02:01:27;23.20;59.90
44537;DHT22;30245;51.966;6.292;2023-07-16T02:03:52;23.20;59.80
44537;DHT22;30245;51.966;6.292;2023-07-16T02:06:18;23.10;59.80
44537;DHT22;30245;51.966;6.292;2023-07-16T02:08:44;23.10;59.60
44537;DHT22;30245;51.966;6.292;2023-07-16T02:11:09;23.10;59.60
44537;DHT22;30245;51.966;6.292;2023-07-16T02:13:35;23.00;59.60
44537;DHT22;30245;51.966;6.292;2023-07-16T02:16:00;23.00;59.60
44537;DHT22;30245;51.966;6.292;2023-07-16T02:18:26;23.00;59.60
44537;DHT22;30245;51.966;6.292;2023-07-16T02:20:52;23.00;59.50
44537;DHT22;30245;51.966;6.292;2023-07-16T02:23:17;23.00;59.40
44537;DHT22;30245;51.966;6.292;2023-07-16T02:25:43;23.10;59.40
44537;DHT22;30245;51.966;6.292;2023-07-16T02:28:08;23.10;59.30
44537;DHT22;30245;51.966;6.292;2023-07-16T02:30:34;23.20;59.20
44537;DHT22;30245;51.966;6.292;2023-07-16T02:32:59;23.20;59.10
44537;DHT22;30245;51.966;6.292;2023-07-16T02:35:25;23.10;59.10
44537;DHT22;30245;51.966;6.292;2023-07-16T02:37:51;23.00;59.40
44537;DHT22;30245;51.966;6.292;2023-07-16T02:40:16;23.00;59.60
44537;DHT22;30245;51.966;6.292;2023-07-16T02:42:42;23.00;59.90
44537;DHT22;30245;51.966;6.292;2023-07-16T02:45:08;23.00;60.10
44537;DHT22;30245;51.966;6.292;2023-07-16T02:47:33;23.00;60.10
44537;DHT22;30245;51.966;6.292;2023-07-16T02:49:59;22.90;60.30
44537;DHT22;30245;51.966;6.292;2023-07-16T02:52:24;22.90;60.30
44537;DHT22;30245;51.966;6.292;2023-07-16T02:54:50;22.80;60.80
44537;DHT22;30245;51.966;6.292;2023-07-16T02:57:16;22.90;60.90
44537;DHT22;30245;51.966;6.292;2023-07-16T02:59:42;22.90;60.90
44537;DHT22;30245;51.966;6.292;2023-07-16T03:02:08;22.90;61.10
44537;DHT22;30245;51.966;6.292;2023-07-16T03:04:33;22.90;61.30
44537;DHT22;30245;51.966;6.292;2023-07-16T03:06:59;22.90;61.30
44537;DHT22;30245;51.966;6.292;2023-07-16T03:09:24;22.90;61.30
44537;DHT22;30245;51.966;6.292;2023-07-16T03:11:50;23.00;61.40
44537;DHT22;30245;51.966;6.292;2023-07-16T03:14:15;23.00;61.30
44537;DHT22;30245;51.966;6.292;2023-07-16T03:16:41;23.00;61.20
44537;DHT22;30245;51.966;6.292;2023-07-16T03:19:07;23.00;61.30
44537;DHT22;30245;51.966;6.292;2023-07-16T03:21:32;23.00;61.40
44537;DHT22;30245;51.966;6.292;2023-07-16T03:23:58;22.90;61.40
44537;DHT22;30245;51.966;6.292;2023-07-16T03:26:24;22.90;61.70
44537;DHT22;30245;51.966;6.292;2023-07-16T03:28:49;22.80;61.80
44537;DHT22;30245;51.966;6.292;2023-07-16T03:31:15;22.80;61.90
44537;DHT22;30245;51.966;6.292;2023-07-16T03:33:40;22.80;62.00
44537;DHT22;30245;51.966;6.292;2023-07-16T03:36:06;22.80;61.90
44537;DHT22;30245;51.966;6.292;2023-07-16T03:38:32;22.80;61.80
44537;DHT22;30245;51.966;6.292;2023-07-16T03:40:57;22.80;61.80
44537;DHT22;30245;51.966;6.292;2023-07-16T03:43:23;22.70;62.00
44537;DHT22;30245;51.966;6.292;2023-07-16T03:45:49;22.60;62.40
44537;DHT22;30245;51.966;6.292;2023-07-16T03:48:15;22.50;62.50
44537;DHT22;30245;51.966;6.292;2023-07-16T03:50:40;22.50;62.60
44537;DHT22;30245;51.966;6.292;2023-07-16T03:53:06;22.50;62.50
44537;DHT22;30245;51.966;6.292;2023-07-16T03:55:32;22.60;62.40
44537;DHT22;30245;51.966;6.292;2023-07-16T03:57:57;22.60;62.30
44537;DHT22;30245;51.966;6.292;2023-07-16T04:00:23;22.50;62.40
44537;DHT22;30245;51.966;6.292;2023-07-16T04:02:49;22.40;62.40
44537;DHT22;30245;51.966;6.292;2023-07-16T04:05:14;22.40;62.60
44537;DHT22;30245;51.966;6.292;2023-07-16T04:07:40;22.40;62.50
44537;DHT22;30245;51.966;6.292;2023-07-16T04:10:06;22.50;62.50
44537;DHT22;30245;51.966;6.292;2023-07-16T04:12:32;22.50;62.40
44537;DHT22;30245;51.966;6.292;2023-07-16T04:14:58;22.40;62.40
44537;DHT22;30245;51.966;6.292;2023-07-16T04:17:25;22.40;62.30
44537;DHT22;30245;51.966;6.292;2023-07-16T04:19:50;22.40;62.20
44537;DHT22;30245;51.966;6.292;2023-07-16T04:22:16;22.40;62.30
44537;DHT22;30245;51.966;6.292;2023-07-16T04:24:42;22.40;62.20
44537;DHT22;30245;51.966;6.292;2023-07-16T04:27:07;22.40;61.90
44537;DHT22;30245;51.966;6.292;2023-07-16T04:29:33;22.50;61.80
44537;DHT22;30245;51.966;6.292;2023-07-16T04:31:58;22.50;61.50
44537;DHT22;30245;51.966;6.292;2023-07-16T04:34:24;22.40;61.20
44537;DHT22;30245;51.966;6.292;2023-07-16T04:36:50;22.30;61.10
44537;DHT22;30245;51.966;6.292;2023-07-16T04:39:16;22.30;61.10
44537;DHT22;30245;51.966;6.292;2023-07-16T04:41:41;22.20;60.60
44537;DHT22;30245;51.966;6.292;2023-07-16T04:44:07;22.20;60.20
44537;DHT22;30245;51.966;6.292;2023-07-16T04:46:33;22.10;59.90
44537;DHT22;30245;51.966;6.292;2023-07-16T04:48:59;22.10;59.80
44537;DHT22;30245;51.966;6.292;2023-07-16T04:51:24;22.00;59.70
44537;DHT22;30245;51.966;6.292;2023-07-16T04:53:51;21.90;59.30
44537;DHT22;30245;51.966;6.292;2023-07-16T04:56:16;22.00;59.20
44537;DHT22;30245;51.966;6.292;2023-07-16T04:58:42;22.00;58.90
44537;DHT22;30245;51.966;6.292;2023-07-16T05:01:09;22.00;58.70
44537;DHT22;30245;51.966;6.292;2023-07-16T05:03:35;22.00;58.50
44537;DHT22;30245;51.966;6.292;2023-07-16T05:06:01;22.10;58.40
44537;DHT22;30245;51.966;6.292;2023-07-16T05:08:27;22.00;58.20
44537;DHT22;30245;51.966;6.292;2023-07-16T05:10:53;22.00;58.00
44537;DHT22;30245;51.966;6.292;2023-07-16T05:13:18;22.00;58.10
44537;DHT22;30245;51.966;6.292;2023-07-16T05:15:44;22.00;58.00
44537;DHT22;30245;51.966;6.292;2023-07-16T05:18:10;22.00;58.10
44537;DHT22;30245;51.966;6.292;2023-07-16T05:20:36;22.00;58.00
44537;DHT22;30245;51.966;6.292;2023-07-16T05:23:01;22.10;57.80
44537;DHT22;30245;51.966;6.292;2023-07-16T05:25:27;22.00;57.70
44537;DHT22;30245;51.966;6.292;2023-07-16T05:27:53;22.00;57.40
44537;DHT22;30245;51.966;6.292;2023-07-16T05:30:18;21.90;57.60
44537;DHT22;30245;51.966;6.292;2023-07-16T05:32:44;21.90;57.60
44537;DHT22;30245;51.966;6.292;2023-07-16T05:35:09;21.90;57.30
44537;DHT22;30245;51.966;6.292;2023-07-16T05:37:35;21.90;57.40
44537;DHT22;30245;51.966;6.292;2023-07-16T05:40:01;22.00;56.90
44537;DHT22;30245;51.966;6.292;2023-07-16T05:42:28;21.90;56.70
44537;DHT22;30245;51.966;6.292;2023-07-16T05:44:54;21.80;56.60
44537;DHT22;30245;51.966;6.292;2023-07-16T05:47:19;21.80;56.60
44537;DHT22;30245;51.966;6.292;2023-07-16T05:49:45;21.80;56.40
44537;DHT22;30245;51.966;6.292;2023-07-16T05:52:10;21.90;56.30
44537;DHT22;30245;51.966;6.292;2023-07-16T05:54:36;21.90;56.20
44537;DHT22;30245;51.966;6.292;2023-07-16T05:57:02;21.90;56.10
44537;DHT22;30245;51.966;6.292;2023-07-16T05:59:27;22.00;55.80
44537;DHT22;30245;51.966;6.292;2023-07-16T06:01:53;22.00;55.40
44537;DHT22;30245;51.966;6.292;2023-07-16T06:04:18;22.00;55.30
44537;DHT22;30245;51.966;6.292;2023-07-16T06:06:44;22.00;55.30
44537;DHT22;30245;51.966;6.292;2023-07-16T06:09:10;22.00;55.20
44537;DHT22;30245;51.966;6.292;2023-07-16T06:11:35;22.10;55.00
44537;DHT22;30245;51.966;6.292;2023-07-16T06:14:01;22.10;54.60
44537;DHT22;30245;51.966;6.292;2023-07-16T06:16:26;22.10;54.60
44537;DHT22;30245;51.966;6.292;2023-07-16T06:18:52;22.10;54.60
44537;DHT22;30245;51.966;6.292;2023-07-16T06:21:18;22.10;54.50
44537;DHT22;30245;51.966;6.292;2023-07-16T06:23:43;22.10;54.50
44537;DHT22;30245;51.966;6.292;2023-07-16T06:26:09;22.20;54.40
44537;DHT22;30245;51.966;6.292;2023-07-16T06:28:34;22.20;54.30
44537;DHT22;30245;51.966;6.292;2023-07-16T06:31:00;22.20;54.00
44537;DHT22;30245;51.966;6.292;2023-07-16T06:33:26;22.20;54.50
44537;DHT22;30245;51.966;6.292;2023-07-16T06:35:52;22.20;53.70
44537;DHT22;30245;51.966;6.292;2023-07-16T06:38:18;22.20;53.80
44537;DHT22;30245;51.966;6.292;2023-07-16T06:40:51;22.20;53.80
44537;DHT22;30245;51.966;6.292;2023-07-16T06:43:17;22.20;53.60
44537;DHT22;30245;51.966;6.292;2023-07-16T06:45:43;22.20;53.60
44537;DHT22;30245;51.966;6.292;2023-07-16T06:48:08;22.30;53.80
44537;DHT22;30245;51.966;6.292;2023-07-16T06:50:34;22.30;53.60
44537;DHT22;30245;51.966;6.292;2023-07-16T06:53:00;22.30;53.50
44537;DHT22;30245;51.966;6.292;2023-07-16T06:55:26;22.40;53.50
44537;DHT22;30245;51.966;6.292;2023-07-16T06:57:51;22.60;53.10
44537;DHT22;30245;51.966;6.292;2023-07-16T07:00:17;22.60;52.90
44537;DHT22;30245;51.966;6.292;2023-07-16T07:02:43;22.60;52.80
44537;DHT22;30245;51.966;6.292;2023-07-16T07:05:09;22.60;52.80
44537;DHT22;30245;51.966;6.292;2023-07-16T07:07:34;22.50;52.80
44537;DHT22;30245;51.966;6.292;2023-07-16T07:10:00;22.60;52.80
44537;DHT22;30245;51.966;6.292;2023-07-16T07:12:26;22.70;52.70
44537;DHT22;30245;51.966;6.292;2023-07-16T07:14:51;22.80;52.50
44537;DHT22;30245;51.966;6.292;2023-07-16T07:17:17;22.80;52.30
44537;DHT22;30245;51.966;6.292;2023-07-16T07:19:43;22.80;52.20
44537;DHT22;30245;51.966;6.292;2023-07-16T07:22:09;22.80;52.10
44537;DHT22;30245;51.966;6.292;2023-07-16T07:24:34;22.80;52.10
44537;DHT22;30245;51.966;6.292;2023-07-16T07:27:00;22.80;52.10
44537;DHT22;30245;51.966;6.292;2023-07-16T07:29:25;22.90;51.90
44537;DHT22;30245;51.966;6.292;2023-07-16T07:31:52;23.00;52.50
44537;DHT22;30245;51.966;6.292;2023-07-16T07:34:18;23.10;51.70
44537;DHT22;30245;51.966;6.292;2023-07-16T07:36:43;23.20;51.70
44537;DHT22;30245;51.966;6.292;2023-07-16T07:39:09;23.20;51.50
44537;DHT22;30245;51.966;6.292;2023-07-16T07:41:35;23.20;51.40
44537;DHT22;30245;51.966;6.292;2023-07-16T07:44:00;23.20;51.20
44537;DHT22;30245;51.966;6.292;2023-07-16T07:46:26;23.30;51.20
44537;DHT22;30245;51.966;6.292;2023-07-16T07:48:51;23.30;51.10
44537;DHT22;30245;51.966;6.292;2023-07-16T07:51:17;23.30;51.20
44537;DHT22;30245;51.966;6.292;2023-07-16T07:53:43;23.40;51.10
44537;DHT22;30245;51.966;6.292;2023-07-16T07:56:08;23.50;51.10
44537;DHT22;30245;51.966;6.292;2023-07-16T07:58:34;23.50;50.60
44537;DHT22;30245;51.966;6.292;2023-07-16T08:01:07;23.50;50.50
44537;DHT22;30245;51.966;6.292;2023-07-16T08:03:33;23.50;50.40
44537;DHT22;30245;51.966;6.292;2023-07-16T08:05:59;23.50;50.20
44537;DHT22;30245;51.966;6.292;2023-07-16T08:08:24;23.50;50.10
44537;DHT22;30245;51.966;6.292;2023-07-16T08:10:50;23.60;50.30
44537;DHT22;30245;51.966;6.292;2023-07-16T08:13:15;23.60;50.00
44537;DHT22;30245;51.966;6.292;2023-07-16T08:15:41;23.60;50.10
44537;DHT22;30245;51.966;6.292;2023-07-16T08:18:07;23.70;50.10
44537;DHT22;30245;51.966;6.292;2023-07-16T08:20:32;23.70;49.80
44537;DHT22;30245;51.966;6.292;2023-07-16T08:22:58;23.70;49.60
44537;DHT22;30245;51.966;6.292;2023-07-16T08:25:23;23.90;49.70
44537;DHT22;30245;51.966;6.292;2023-07-16T08:27:49;24.00;49.10
44537;DHT22;30245;51.966;6.292;2023-07-16T08:30:15;24.00;48.90
44537;DHT22;30245;51.966;6.292;2023-07-16T08:32:41;24.00;49.70
44537;DHT22;30245;51.966;6.292;2023-07-16T08:35:07;24.00;49.00
44537;DHT22;30245;51.966;6.292;2023-07-16T08:37:32;24.20;49.00
44537;DHT22;30245;51.966;6.292;2023-07-16T08:39:58;24.30;48.80
44537;DHT22;30245;51.966;6.292;2023-07-16T08:42:24;24.40;48.50
44537;DHT22;30245;51.966;6.292;2023-07-16T08:44:50;24.40;48.30
44537;DHT22;30245;51.966;6.292;2023-07-16T08:47:16;24.40;48.00
44537;DHT22;30245;51.966;6.292;2023-07-16T08:49:55;24.40;48.10
44537;DHT22;30245;51.966;6.292;2023-07-16T08:52:26;24.30;48.30
44537;DHT22;30245;51.966;6.292;2023-07-16T08:54:52;24.40;48.30
44537;DHT22;30245;51.966;6.292;2023-07-16T08:57:19;24.50;47.90
44537;DHT22;30245;51.966;6.292;2023-07-16T08:59:48;24.50;47.50
44537;DHT22;30245;51.966;6.292;2023-07-16T09:02:16;24.60;47.60
44537;DHT22;30245;51.966;6.292;2023-07-16T09:04:42;24.60;47.50
44537;DHT22;30245;51.966;6.292;2023-07-16T09:07:08;24.60;47.40
44537;DHT22;30245;51.966;6.292;2023-07-16T09:09:33;24.70;47.40
44537;DHT22;30245;51.966;6.292;2023-07-16T09:11:59;24.70;47.40
44537;DHT22;30245;51.966;6.292;2023-07-16T09:14:25;24.60;47.40
44537;DHT22;30245;51.966;6.292;2023-07-16T09:16:51;24.60;47.50
44537;DHT22;30245;51.966;6.292;2023-07-16T09:19:18;24.60;47.50
44537;DHT22;30245;51.966;6.292;2023-07-16T09:21:50;24.80;47.40
44537;DHT22;30245;51.966;6.292;2023-07-16T09:24:16;24.90;47.00
44537;DHT22;30245;51.966;6.292;2023-07-16T09:26:49;25.00;46.90
44537;DHT22;30245;51.966;6.292;2023-07-16T09:29:15;25.10;47.00
44537;DHT22;30245;51.966;6.292;2023-07-16T09:31:58;25.10;46.20
44537;DHT22;30245;51.966;6.292;2023-07-16T09:34:27;25.20;46.20
44537;DHT22;30245;51.966;6.292;2023-07-16T09:36:52;25.20;46.30
44537;DHT22;30245;51.966;6.292;2023-07-16T09:39:18;25.30;46.40
44537;DHT22;30245;51.966;6.292;2023-07-16T09:41:48;25.50;46.10
44537;DHT22;30245;51.966;6.292;2023-07-16T09:44:15;25.60;45.80
44537;DHT22;30245;51.966;6.292;2023-07-16T09:46:41;25.70;45.90
44537;DHT22;30245;51.966;6.292;2023-07-16T09:49:08;25.70;45.60
44537;DHT22;30245;51.966;6.292;2023-07-16T09:51:36;25.70;45.50
44537;DHT22;30245;51.966;6.292;2023-07-16T09:54:02;25.70;45.30
44537;DHT22;30245;51.966;6.292;2023-07-16T09:56:36;25.80;45.40
44537;DHT22;30245;51.966;6.292;2023-07-16T09:59:08;25.80;45.30
44537;DHT22;30245;51.966;6.292;2023-07-16T10:01:37;25.90;45.10
44537;DHT22;30245;51.966;6.292;2023-07-16T10:04:12;25.90;44.90
44537;DHT22;30245;51.966;6.292;2023-07-16T10:06:52;26.00;44.80
44537;DHT22;30245;51.966;6.292;2023-07-16T10:09:41;26.00;44.60
44537;DHT22;30245;51.966;6.292;2023-07-16T10:12:18;26.00;44.50
44537;DHT22;30245;51.966;6.292;2023-07-16T10:14:46;26.20;44.60
44537;DHT22;30245;51.966;6.292;2023-07-16T10:17:18;26.20;44.60
44537;DHT22;30245;51.966;6.292;2023-07-16T10:22:32;26.20;44.60
44537;DHT22;30245;51.966;6.292;2023-07-16T10:24:57;26.20;44.10
44537;DHT22;30245;51.966;6.292;2023-07-16T10:27:31;26.20;44.20
44537;DHT22;30245;51.966;6.292;2023-07-16T10:29:57;26.10;44.40
44537;DHT22;30245;51.966;6.292;2023-07-16T10:32:27;26.10;44.50
44537;DHT22;30245;51.966;6.292;2023-07-16T10:34:54;26.20;44.30
44537;DHT22;30245;51.966;6.292;2023-07-16T10:37:20;26.30;44.50
44537;DHT22;30245;51.966;6.292;2023-07-16T10:39:50;26.30;44.00
44537;DHT22;30245;51.966;6.292;2023-07-16T10:42:16;26.30;44.00
44537;DHT22;30245;51.966;6.292;2023-07-16T10:44:43;26.30;43.90
44537;DHT22;30245;51.966;6.292;2023-07-16T10:47:17;26.30;43.90
44537;DHT22;30245;51.966;6.292;2023-07-16T10:49:44;26.30;44.00
44537;DHT22;30245;51.966;6.292;2023-07-16T10:52:10;26.30;43.80
44537;DHT22;30245;51.966;6.292;2023-07-16T10:54:35;26.20;44.00
44537;DHT22;30245;51.966;6.292;2023-07-16T10:57:02;26.30;44.20
44537;DHT22;30245;51.966;6.292;2023-07-16T10:59:29;26.40;44.10
44537;DHT22;30245;51.966;6.292;2023-07-16T11:01:55;26.50;43.80
44537;DHT22;30245;51.966;6.292;2023-07-16T11:04:20;26.50;43.80
44537;DHT22;30245;51.966;6.292;2023-07-16T11:06:46;26.50;43.80
44537;DHT22;30245;51.966;6.292;2023-07-16T11:09:12;26.60;43.70
44537;DHT22;30245;51.966;6.292;2023-07-16T11:11:38;26.70;43.30
44537;DHT22;30245;51.966;6.292;2023-07-16T11:14:06;26.60;42.90
44537;DHT22;30245;51.966;6.292;2023-07-16T11:16:35;26.50;42.90
44537;DHT22;30245;51.966;6.292;2023-07-16T11:19:03;26.50;42.90
44537;DHT22;30245;51.966;6.292;2023-07-16T11:21:29;26.50;43.00
44537;DHT22;30245;51.966;6.292;2023-07-16T11:23:55;26.50;43.00
44537;DHT22;30245;51.966;6.292;2023-07-16T11:26:20;26.40;43.00
44537;DHT22;30245;51.966;6.292;2023-07-16T11:28:49;26.50;43.20
44537;DHT22;30245;51.966;6.292;2023-07-16T11:31:17;26.80;43.10
44537;DHT22;30245;51.966;6.292;2023-07-16T11:33:44;26.90;42.60
44537;DHT22;30245;51.966;6.292;2023-07-16T11:36:10;26.80;42.70
44537;DHT22;30245;51.966;6.292;2023-07-16T11:38:36;27.00;42.90
44537;DHT22;30245;51.966;6.292;2023-07-16T11:41:02;27.10;42.60
44537;DHT22;30245;51.966;6.292;2023-07-16T11:43:28;27.10;42.40
44537;DHT22;30245;51.966;6.292;2023-07-16T11:45:54;27.10;42.40
44537;DHT22;30245;51.966;6.292;2023-07-16T11:48:19;27.10;42.50
44537;DHT22;30245;51.966;6.292;2023-07-16T11:50:45;27.10;42.30
44537;DHT22;30245;51.966;6.292;2023-07-16T11:53:11;27.00;42.20
44537;DHT22;30245;51.966;6.292;2023-07-16T11:55:36;27.00;43.00
44537;DHT22;30245;51.966;6.292;2023-07-16T11:58:02;27.10;42.40
44537;DHT22;30245;51.966;6.292;2023-07-16T12:00:28;27.00;41.80
44537;DHT22;30245;51.966;6.292;2023-07-16T12:02:54;27.00;42.00
44537;DHT22;30245;51.966;6.292;2023-07-16T12:05:21;27.00;41.90
44537;DHT22;30245;51.966;6.292;2023-07-16T12:07:47;27.00;41.80
44537;DHT22;30245;51.966;6.292;2023-07-16T12:10:12;26.90;41.80
44537;DHT22;30245;51.966;6.292;2023-07-16T12:12:38;26.90;42.10
44537;DHT22;30245;51.966;6.292;2023-07-16T12:15:05;26.90;41.90
44537;DHT22;30245;51.966;6.292;2023-07-16T12:17:30;26.80;42.10
44537;DHT22;30245;51.966;6.292;2023-07-16T12:19:56;26.80;42.30
44537;DHT22;30245;51.966;6.292;2023-07-16T12:22:22;26.80;42.30
44537;DHT22;30245;51.966;6.292;2023-07-16T12:24:48;26.70;42.20
44537;DHT22;30245;51.966;6.292;2023-07-16T12:27:14;26.70;42.20
44537;DHT22;30245;51.966;6.292;2023-07-16T12:29:41;26.60;42.40
44537;DHT22;30245;51.966;6.292;2023-07-16T12:32:07;26.50;42.40
44537;DHT22;30245;51.966;6.292;2023-07-16T12:34:33;26.40;42.30
44537;DHT22;30245;51.966;6.292;2023-07-16T12:36:59;26.40;42.50
44537;DHT22;30245;51.966;6.292;2023-07-16T12:39:25;26.40;42.50
44537;DHT22;30245;51.966;6.292;2023-07-16T12:41:50;26.40;42.50
44537;DHT22;30245;51.966;6.292;2023-07-16T12:44:16;26.50;42.30
44537;DHT22;30245;51.966;6.292;2023-07-16T12:46:42;26.50;42.30
44537;DHT22;30245;51.966;6.292;2023-07-16T12:49:07;26.60;42.40
44537;DHT22;30245;51.966;6.292;2023-07-16T12:51:33;26.60;42.10
44537;DHT22;30245;51.966;6.292;2023-07-16T12:53:58;26.60;42.10
44537;DHT22;30245;51.966;6.292;2023-07-16T12:56:26;26.60;42.30
44537;DHT22;30245;51.966;6.292;2023-07-16T12:58:51;26.50;42.50
44537;DHT22;30245;51.966;6.292;2023-07-16T13:01:17;26.40;42.70
44537;DHT22;30245;51.966;6.292;2023-07-16T13:03:43;26.40;42.80
44537;DHT22;30245;51.966;6.292;2023-07-16T13:06:08;26.50;42.90
44537;DHT22;30245;51.966;6.292;2023-07-16T13:08:34;26.70;42.70
44537;DHT22;30245;51.966;6.292;2023-07-16T13:11:00;26.80;42.70
44537;DHT22;30245;51.966;6.292;2023-07-16T13:13:26;26.90;42.50
44537;DHT22;30245;51.966;6.292;2023-07-16T13:15:52;26.90;42.10
44537;DHT22;30245;51.966;6.292;2023-07-16T13:18:18;26.80;42.20
44537;DHT22;30245;51.966;6.292;2023-07-16T13:20:44;26.70;42.40
44537;DHT22;30245;51.966;6.292;2023-07-16T13:23:09;26.80;42.40
44537;DHT22;30245;51.966;6.292;2023-07-16T13:25:36;26.90;42.40
44537;DHT22;30245;51.966;6.292;2023-07-16T13:28:06;27.20;42.40
44537;DHT22;30245;51.966;6.292;2023-07-16T13:30:32;27.40;41.90
44537;DHT22;30245;51.966;6.292;2023-07-16T13:32:58;27.60;41.70
44537;DHT22;30245;51.966;6.292;2023-07-16T13:35:24;27.90;41.70
44537;DHT22;30245;51.966;6.292;2023-07-16T13:37:50;27.90;41.50
44537;DHT22;30245;51.966;6.292;2023-07-16T13:40:16;27.90;41.30
44537;DHT22;30245;51.966;6.292;2023-07-16T13:42:42;27.90;41.50
44537;DHT22;30245;51.966;6.292;2023-07-16T13:45:08;28.10;41.50
44537;DHT22;30245;51.966;6.292;2023-07-16T13:47:33;28.20;41.10
44537;DHT22;30245;51.966;6.292;2023-07-16T13:49:59;28.30;40.90
44537;DHT22;30245;51.966;6.292;2023-07-16T13:52:25;28.30;41.20
44537;DHT22;30245;51.966;6.292;2023-07-16T13:54:50;28.30;41.20
44537;DHT22;30245;51.966;6.292;2023-07-16T13:57:16;28.30;41.00
44537;DHT22;30245;51.966;6.292;2023-07-16T13:59:42;28.20;41.00
44537;DHT22;30245;51.966;6.292;2023-07-16T14:02:07;28.40;41.20
44537;DHT22;30245;51.966;6.292;2023-07-16T14:04:33;28.70;40.90
44537;DHT22;30245;51.966;6.292;2023-07-16T14:06:59;28.80;40.60
44537;DHT22;30245;51.966;6.292;2023-07-16T14:09:25;28.70;40.70
44537;DHT22;30245;51.966;6.292;2023-07-16T14:11:51;28.70;41.00
44537;DHT22;30245;51.966;6.292;2023-07-16T14:14:21;28.80;40.80
44537;DHT22;30245;51.966;6.292;2023-07-16T14:16:47;28.80;40.70
44537;DHT22;30245;51.966;6.292;2023-07-16T14:19:12;28.80;41.20
44537;DHT22;30245;51.966;6.292;2023-07-16T14:21:38;28.80;40.70
44537;DHT22;30245;51.966;6.292;2023-07-16T14:24:04;28.70;40.60
44537;DHT22;30245;51.966;6.292;2023-07-16T14:26:30;28.70;41.00
44537;DHT22;30245;51.966;6.292;2023-07-16T14:28:56;28.80;40.80
44537;DHT22;30245;51.966;6.292;2023-07-16T14:31:21;28.90;40.70
44537;DHT22;30245;51.966;6.292;2023-07-16T14:33:47;29.10;40.00
44537;DHT22;30245;51.966;6.292;2023-07-16T14:36:12;29.30;39.00
44537;DHT22;30245;51.966;6.292;2023-07-16T14:38:39;29.40;38.30
44537;DHT22;30245;51.966;6.292;2023-07-16T14:41:04;29.50;38.10
44537;DHT22;30245;51.966;6.292;2023-07-16T14:43:31;29.40;38.20
44537;DHT22;30245;51.966;6.292;2023-07-16T14:45:57;29.30;38.20
44537;DHT22;30245;51.966;6.292;2023-07-16T14:48:23;29.00;38.20
44537;DHT22;30245;51.966;6.292;2023-07-16T14:50:49;28.70;38.70
44537;DHT22;30245;51.966;6.292;2023-07-16T14:53:15;28.50;38.80
44537;DHT22;30245;51.966;6.292;2023-07-16T14:55:46;28.40;39.00
44537;DHT22;30245;51.966;6.292;2023-07-16T14:58:12;28.40;39.00
44537;DHT22;30245;51.966;6.292;2023-07-16T15:00:38;28.50;38.90
44537;DHT22;30245;51.966;6.292;2023-07-16T15:03:03;28.70;38.60
44537;DHT22;30245;51.966;6.292;2023-07-16T15:05:30;29.00;38.40
44537;DHT22;30245;51.966;6.292;2023-07-16T15:07:55;29.20;38.00
44537;DHT22;30245;51.966;6.292;2023-07-16T15:10:21;29.40;37.70
44537;DHT22;30245;51.966;6.292;2023-07-16T15:12:46;29.40;37.40
44537;DHT22;30245;51.966;6.292;2023-07-16T15:15:13;29.40;37.60
44537;DHT22;30245;51.966;6.292;2023-07-16T15:17:38;29.20;37.90
44537;DHT22;30245;51.966;6.292;2023-07-16T15:20:04;29.10;38.30
44537;DHT22;30245;51.966;6.292;2023-07-16T15:22:30;28.80;38.10
44537;DHT22;30245;51.966;6.292;2023-07-16T15:24:58;28.50;38.20
44537;DHT22;30245;51.966;6.292;2023-07-16T15:27:26;28.40;38.70
44537;DHT22;30245;51.966;6.292;2023-07-16T15:29:52;28.30;38.80